Time;durP1;ratioP1;P1;durP2;ratioP2;P2;SDS_P1;SDS_P2;PMS_P1;PMS_P2;Temp;Humidity;BMP_temperature;BMP_pressure;BME280_temperature;BME280_humidity;BME280_pressure;Samples;Min_cycle;Max_cycle;Signal;HPM_P1;HPM_P2
2021/05/04 00:02:28;;;;;;;6.13;5.63;;;8.00;99.90;;;;;;4978257;28;21001;-64
2021/05/04 00:05:09;;;;;;;8.50;6.07;;;8.00;99.90;;;;;;4978352;28;20960;-63
2021/05/04 00:07:35;;;;;;;6.50;5.90;;;8.00;99.90;;;;;;4975350;28;20462;-63
2021/05/04 00:10:02;;;;;;;6.37;5.77;;;8.00;99.90;;;;;;4981008;28;20492;-63
2021/05/04 00:12:32;;;;;;;6.40;5.80;;;8.00;99.90;;;;;;4979761;28;20470;-63
2021/05/04 00:15:07;;;;;;;6.07;5.50;;;8.00;99.90;;;;;;4979169;28;20497;-63
2021/05/04 00:17:36;;;;;;;7.47;6.73;;;8.10;99.90;;;;;;4983639;28;20443;-63
2021/05/04 00:20:06;;;;;;;7.97;6.23;;;8.10;99.90;;;;;;4980578;28;20459;-64
2021/05/04 00:22:33;;;;;;;8.83;6.90;;;8.10;99.90;;;;;;4980104;28;20482;-64
2021/05/04 00:24:59;;;;;;;7.07;6.37;;;8.10;99.90;;;;;;4978230;28;20461;-64
2021/05/04 00:27:29;;;;;;;6.97;6.27;;;8.10;99.90;;;;;;4978397;28;20462;-64
2021/05/04 00:29:58;;;;;;;8.50;6.73;;;8.10;99.90;;;;;;4977668;28;21023;-65
2021/05/04 00:32:27;;;;;;;8.17;6.70;;;8.00;99.90;;;;;;4977491;28;20459;-64
2021/05/04 00:34:54;;;;;;;8.47;6.70;;;8.00;99.90;;;;;;4977689;28;20466;-64
2021/05/04 00:37:23;;;;;;;7.30;6.60;;;8.00;99.90;;;;;;4978579;28;20549;-65
2021/05/04 00:39:49;;;;;;;7.90;6.80;;;8.00;99.90;;;;;;4977982;28;20450;-65
2021/05/04 00:42:23;;;;;;;8.10;6.77;;;8.00;99.90;;;;;;4978069;28;20450;-65
2021/05/04 00:44:52;;;;;;;7.10;6.40;;;8.00;99.90;;;;;;4978621;28;20466;-65
2021/05/04 00:47:18;;;;;;;7.83;6.17;;;8.00;99.90;;;;;;4978474;28;20992;-65
2021/05/04 00:49:47;;;;;;;6.73;6.13;;;8.00;99.90;;;;;;4978163;28;20545;-63
2021/05/04 00:52:19;;;;;;;7.30;6.60;;;8.10;99.90;;;;;;4977312;28;20545;-64
2021/05/04 00:54:49;;;;;;;7.90;6.90;;;8.00;99.90;;;;;;4977860;28;20458;-63
2021/05/04 00:57:16;;;;;;;8.77;6.60;;;8.10;99.90;;;;;;4978869;28;20512;-65
2021/05/04 00:59:48;;;;;;;7.30;6.60;;;8.10;99.90;;;;;;4977861;28;20450;-64
2021/05/04 01:02:16;;;;;;;7.33;6.67;;;8.10;99.90;;;;;;4977743;28;20443;-64
2021/05/04 01:04:47;;;;;;;10.73;8.07;;;8.20;99.90;;;;;;4989491;28;20499;-63
2021/05/04 01:07:19;;;;;;;7.13;6.53;;;8.20;99.90;;;;;;4983167;28;20806;-65
2021/05/04 01:09:50;;;;;;;9.30;7.23;;;8.20;99.90;;;;;;4977852;28;20542;-65
2021/05/04 01:12:18;;;;;;;9.20;6.93;;;8.20;99.90;;;;;;4977505;28;20863;-65
2021/05/04 01:14:44;;;;;;;7.13;6.43;;;8.20;99.90;;;;;;4976657;28;20549;-65
2021/05/04 01:17:13;;;;;;;12.00;6.80;;;8.20;99.90;;;;;;4980048;28;20458;-64
2021/05/04 01:19:44;;;;;;;7.07;6.50;;;8.20;99.90;;;;;;4995719;28;20516;-64
2021/05/04 01:22:21;;;;;;;7.60;6.83;;;8.10;99.90;;;;;;4979777;28;20522;-65
2021/05/04 01:24:50;;;;;;;7.03;6.33;;;8.00;99.90;;;;;;4976305;28;20455;-65
2021/05/04 01:27:19;;;;;;;7.87;7.10;;;7.90;99.90;;;;;;4977605;28;20464;-64
2021/05/04 01:29:52;;;;;;;6.93;6.23;;;7.80;99.90;;;;;;4976662;28;20492;-64
2021/05/04 01:32:18;;;;;;;6.97;6.47;;;7.80;99.90;;;;;;4976734;28;20932;-64
2021/05/04 01:34:46;;;;;;;7.37;6.67;;;7.80;99.90;;;;;;4977163;28;20454;-65
2021/05/04 01:37:15;;;;;;;6.80;6.10;;;7.80;99.90;;;;;;4977253;28;20552;-64
2021/05/04 01:39:49;;;;;;;7.57;6.87;;;7.70;99.90;;;;;;4976419;28;20451;-64
2021/05/04 01:42:17;;;;;;;7.80;6.77;;;7.70;99.90;;;;;;4976709;28;20435;-64
2021/05/04 01:44:45;;;;;;;6.23;5.73;;;7.70;99.90;;;;;;4977110;28;20481;-64
2021/05/04 01:47:12;;;;;;;6.70;6.00;;;7.70;99.90;;;;;;4977217;28;20508;-64
2021/05/04 01:49:50;;;;;;;7.83;7.03;;;7.90;99.90;;;;;;4976801;28;20923;-63
2021/05/04 01:52:20;;;;;;;6.80;6.20;;;7.80;99.90;;;;;;4976249;28;20439;-65
2021/05/04 01:54:49;;;;;;;6.47;5.90;;;7.80;99.90;;;;;;4976484;28;20459;-64
2021/05/04 01:57:20;;;;;;;6.70;6.10;;;7.70;99.90;;;;;;4976706;28;20942;-65
2021/05/04 01:59:58;;;;;;;6.97;6.10;;;7.70;99.90;;;;;;4977969;28;20506;-63
2021/05/04 02:02:37;;;;;;;7.40;6.77;;;7.70;99.90;;;;;;4976603;28;20466;-65
2021/05/04 02:05:06;;;;;;;8.27;7.33;;;7.70;99.90;;;;;;4976694;28;20505;-64
2021/05/04 02:07:42;;;;;;;8.00;7.30;;;7.70;99.90;;;;;;4976358;28;20494;-64
2021/05/04 02:10:11;;;;;;;7.30;6.70;;;7.70;99.90;;;;;;4976220;28;20521;-63
2021/05/04 02:12:42;;;;;;;7.87;7.07;;;7.60;99.90;;;;;;4976878;28;20470;-65
2021/05/04 02:15:16;;;;;;;8.83;7.83;;;7.60;99.90;;;;;;4978605;28;20554;-64
2021/05/04 02:17:56;;;;;;;8.80;6.90;;;7.60;99.90;;;;;;4994186;28;20439;-64
2021/05/04 02:20:30;;;;;;;7.23;6.60;;;7.60;99.90;;;;;;4995263;28;20458;-64
2021/05/04 02:22:57;;;;;;;8.20;7.40;;;7.60;99.90;;;;;;4992411;28;20478;-63
2021/05/04 02:25:23;;;;;;;7.63;6.93;;;7.60;99.90;;;;;;4989628;28;20454;-64
2021/05/04 02:27:57;;;;;;;7.73;6.87;;;7.60;99.90;;;;;;4978027;28;20478;-62
2021/05/04 02:30:26;;;;;;;7.93;7.23;;;7.50;99.90;;;;;;4976466;28;20467;-64
2021/05/04 02:32:54;;;;;;;7.63;6.93;;;7.50;99.90;;;;;;4976193;28;20510;-64
2021/05/04 02:35:22;;;;;;;7.20;6.50;;;7.50;99.90;;;;;;4975829;28;20545;-64
2021/05/04 02:37:51;;;;;;;7.80;7.10;;;7.50;99.90;;;;;;4975828;28;20577;-64
2021/05/04 02:40:22;;;;;;;7.87;7.13;;;7.60;99.90;;;;;;4975847;28;20451;-63
2021/05/04 02:42:49;;;;;;;7.30;6.60;;;7.60;99.90;;;;;;4975811;28;20485;-63
2021/05/04 02:45:17;;;;;;;7.63;7.03;;;7.60;99.90;;;;;;4975738;28;20458;-64
2021/05/04 02:47:46;;;;;;;7.40;6.80;;;7.50;99.90;;;;;;4979977;28;20457;-64
2021/05/04 02:50:13;;;;;;;7.23;6.50;;;7.50;99.90;;;;;;4989573;28;20461;-64
2021/05/04 02:52:46;;;;;;;6.53;5.70;;;7.60;99.90;;;;;;4988934;28;20561;-64
2021/05/04 02:55:16;;;;;;;7.40;5.40;;;7.60;99.90;;;;;;4978360;28;20451;-64
2021/05/04 02:57:49;;;;;;;5.83;5.30;;;7.60;99.90;;;;;;4978800;28;20529;-63
2021/05/04 03:00:19;;;;;;;5.97;5.30;;;7.70;99.90;;;;;;4976849;28;20542;-63
2021/05/04 03:02:48;;;;;;;6.33;5.73;;;7.70;99.90;;;;;;4975747;28;20578;-63
2021/05/04 03:05:22;;;;;;;6.20;5.60;;;7.80;99.90;;;;;;4978236;28;20525;-63
2021/05/04 03:07:48;;;;;;;6.47;5.87;;;7.80;99.90;;;;;;4980223;28;20443;-64
2021/05/04 03:10:20;;;;;;;6.20;5.60;;;7.90;99.90;;;;;;4979700;28;20479;-63
2021/05/04 03:12:52;;;;;;;7.43;5.80;;;7.90;99.90;;;;;;4979877;28;20510;-63
2021/05/04 03:15:23;;;;;;;5.67;5.27;;;8.00;99.90;;;;;;4979856;28;20525;-64
2021/05/04 03:17:56;;;;;;;6.80;5.93;;;8.00;99.90;;;;;;4979990;28;20450;-64
2021/05/04 03:20:29;;;;;;;5.70;5.20;;;8.00;99.90;;;;;;4979669;28;20478;-64
2021/05/04 03:22:59;;;;;;;5.67;5.27;;;8.00;99.90;;;;;;4979618;28;21088;-64
2021/05/04 03:25:26;;;;;;;5.63;5.23;;;8.10;99.90;;;;;;4979025;28;20490;-64
2021/05/04 03:27:57;;;;;;;6.17;5.67;;;8.10;99.90;;;;;;4979355;28;20443;-64
2021/05/04 03:30:26;;;;;;;5.50;5.00;;;8.20;99.90;;;;;;4978869;28;20561;-64
2021/05/04 03:32:58;;;;;;;6.23;5.00;;;8.10;99.90;;;;;;4978757;28;20546;-64
2021/05/04 03:35:25;;;;;;;5.90;5.27;;;8.20;99.90;;;;;;4977978;28;20481;-64
2021/05/04 03:37:53;;;;;;;7.27;6.13;;;8.20;99.90;;;;;;4978296;28;20459;-64
2021/05/04 03:40:23;;;;;;;6.00;5.47;;;8.20;99.90;;;;;;4978479;28;20458;-64
2021/05/04 03:42:54;;;;;;;5.47;5.07;;;8.20;99.90;;;;;;4978112;28;20470;-64
2021/05/04 03:45:24;;;;;;;5.60;5.10;;;8.20;99.90;;;;;;4978124;28;20474;-64
2021/05/04 03:47:50;;;;;;;5.53;5.13;;;8.20;99.90;;;;;;4978036;28;20805;-63
2021/05/04 03:50:24;;;;;;;8.90;5.17;;;8.30;99.90;;;;;;4978294;28;20509;-64
2021/05/04 03:52:56;;;;;;;5.80;5.40;;;8.30;99.90;;;;;;4977900;28;20482;-63
2021/05/04 03:55:25;;;;;;;5.00;4.63;;;8.30;99.90;;;;;;4978001;28;20446;-64
2021/05/04 03:57:55;;;;;;;5.20;4.70;;;8.30;99.90;;;;;;4977846;28;20490;-64
2021/05/04 04:00:23;;;;;;;5.10;4.77;;;8.40;99.90;;;;;;4977455;28;20454;-64
2021/05/04 04:02:57;;;;;;;6.37;3.87;;;8.40;99.90;;;;;;4978780;28;20517;-64
2021/05/04 04:05:25;;;;;;;4.60;4.30;;;8.40;99.90;;;;;;4978742;28;20462;-63
2021/05/04 04:07:53;;;;;;;7.30;4.60;;;8.40;99.90;;;;;;4979363;28;20458;-63
2021/05/04 04:10:20;;;;;;;4.50;4.20;;;8.50;99.90;;;;;;4979547;28;20831;-64
2021/05/04 04:12:49;;;;;;;4.30;4.07;;;8.50;99.90;;;;;;4979266;28;20486;-64
2021/05/04 04:15:18;;;;;;;4.23;3.80;;;8.60;99.90;;;;;;4978789;28;20457;-64
2021/05/04 04:17:51;;;;;;;4.67;4.37;;;8.60;99.90;;;;;;4978591;28;20529;-65
2021/05/04 04:20:20;;;;;;;4.77;4.37;;;8.60;99.90;;;;;;4983155;28;20435;-65
2021/05/04 04:22:47;;;;;;;5.40;4.53;;;8.60;99.90;;;;;;4992418;28;20485;-64
2021/05/04 04:25:14;;;;;;;4.73;4.33;;;8.60;99.90;;;;;;4985666;28;20466;-63
2021/05/04 04:27:42;;;;;;;4.50;4.10;;;8.60;99.90;;;;;;4980250;28;20461;-64
2021/05/04 04:30:11;;;;;;;4.77;4.37;;;8.60;99.90;;;;;;4981532;28;20483;-64
2021/05/04 04:32:38;;;;;;;4.17;3.87;;;8.70;99.90;;;;;;4963682;28;20485;-64
2021/05/04 04:35:08;;;;;;;4.43;4.03;;;8.70;99.90;;;;;;4978065;28;21020;-63
2021/05/04 04:37:34;;;;;;;7.07;5.50;;;8.60;99.90;;;;;;4977655;28;20455;-65
2021/05/04 04:40:01;;;;;;;4.63;4.23;;;8.60;99.90;;;;;;4977906;28;20580;-63
2021/05/04 04:42:30;;;;;;;5.90;4.20;;;8.60;99.90;;;;;;4978165;28;20454;-63
2021/05/04 04:44:56;;;;;;;4.10;3.87;;;8.60;99.90;;;;;;4978361;28;20869;-64
2021/05/04 04:47:23;;;;;;;3.60;3.40;;;8.70;99.90;;;;;;4978196;28;20494;-65
2021/05/04 04:49:50;;;;;;;3.47;3.27;;;8.80;99.90;;;;;;4978049;28;20621;-64
2021/05/04 04:52:17;;;;;;;3.20;3.00;;;8.80;99.90;;;;;;4977865;28;20462;-64
2021/05/04 04:54:49;;;;;;;4.57;3.70;;;8.90;99.90;;;;;;4977658;28;20451;-62
2021/05/04 04:57:18;;;;;;;3.33;3.13;;;9.00;99.90;;;;;;4978223;28;20443;-63
2021/05/04 04:59:49;;;;;;;2.77;2.67;;;9.10;99.90;;;;;;4977612;28;20459;-64
2021/05/04 05:02:18;;;;;;;2.63;2.53;;;9.20;99.90;;;;;;4977576;28;20806;-64
2021/05/04 05:04:49;;;;;;;2.80;2.70;;;9.30;99.90;;;;;;4976887;28;20562;-63
2021/05/04 05:07:19;;;;;;;3.60;3.00;;;9.40;99.90;;;;;;4976764;28;20438;-64
2021/05/04 05:09:50;;;;;;;2.80;2.27;;;9.60;99.90;;;;;;4976900;28;20621;-64
2021/05/04 05:12:17;;;;;;;3.00;2.60;;;9.60;99.90;;;;;;4976817;28;20472;-63
2021/05/04 05:14:44;;;;;;;2.80;2.60;;;9.80;99.90;;;;;;4976582;28;20455;-62
2021/05/04 05:17:16;;;;;;;3.90;2.83;;;9.90;99.90;;;;;;4976583;28;20485;-63
2021/05/04 05:19:43;;;;;;;2.63;2.43;;;10.00;99.90;;;;;;4976652;28;20449;-63
2021/05/04 05:22:17;;;;;;;2.60;2.40;;;10.20;99.90;;;;;;4976600;28;20815;-63
2021/05/04 05:24:45;;;;;;;3.40;3.10;;;10.30;99.90;;;;;;4976527;28;20446;-63
2021/05/04 05:27:12;;;;;;;2.53;2.33;;;10.40;99.90;;;;;;4976628;28;20928;-63
2021/05/04 05:29:39;;;;;;;4.40;2.70;;;10.50;99.90;;;;;;4976398;28;20976;-63
2021/05/04 05:32:06;;;;;;;2.97;2.77;;;10.60;99.90;;;;;;4976512;28;20454;-63
2021/05/04 05:34:33;;;;;;;2.63;2.53;;;10.70;99.90;;;;;;4976419;28;20486;-64
2021/05/04 05:36:59;;;;;;;2.77;2.60;;;10.80;99.90;;;;;;4976457;28;20455;-63
2021/05/04 05:39:28;;;;;;;4.53;2.93;;;10.80;99.90;;;;;;4976211;28;20458;-64
2021/05/04 05:41:55;;;;;;;3.50;3.30;;;10.80;99.90;;;;;;4976228;28;20463;-64
2021/05/04 05:44:22;;;;;;;3.03;2.80;;;10.80;99.90;;;;;;4975922;28;20510;-64
2021/05/04 05:46:51;;;;;;;3.07;2.87;;;10.90;99.90;;;;;;4976154;28;20545;-63
2021/05/04 05:49:19;;;;;;;4.80;3.03;;;10.80;99.90;;;;;;4976410;28;20455;-63
2021/05/04 05:51:50;;;;;;;2.87;2.67;;;10.90;99.90;;;;;;4981761;28;20506;-64
2021/05/04 05:54:21;;;;;;;3.27;3.00;;;10.90;99.90;;;;;;4987981;28;20808;-63
2021/05/04 05:56:49;;;;;;;2.80;2.60;;;11.00;99.90;;;;;;4983786;28;20439;-63
2021/05/04 05:59:16;;;;;;;2.57;2.47;;;11.00;99.90;;;;;;4982119;28;20461;-63
2021/05/04 06:01:42;;;;;;;3.23;2.80;;;11.00;99.90;;;;;;4977640;28;20455;-63
2021/05/04 06:04:16;;;;;;;3.97;2.70;;;11.10;99.90;;;;;;4976309;28;20474;-62
2021/05/04 06:06:46;;;;;;;3.27;3.07;;;11.20;99.90;;;;;;4990030;28;20443;-63
2021/05/04 06:09:15;;;;;;;3.50;2.87;;;11.30;99.90;;;;;;4976700;28;20458;-64
2021/05/04 06:11:50;;;;;;;4.10;2.80;;;11.40;99.90;;;;;;4977172;28;20474;-62
2021/05/04 06:14:18;;;;;;;3.00;2.80;;;11.40;99.90;;;;;;4976467;28;20485;-63
2021/05/04 06:16:45;;;;;;;4.07;3.77;;;11.40;99.90;;;;;;4976607;28;20825;-62
2021/05/04 06:19:15;;;;;;;3.23;3.03;;;11.50;99.90;;;;;;4976442;28;20459;-62
2021/05/04 06:21:46;;;;;;;2.70;2.60;;;11.60;99.90;;;;;;4977252;28;20459;-62
2021/05/04 06:24:14;;;;;;;3.17;2.97;;;11.70;99.90;;;;;;4975968;28;20514;-63
2021/05/04 06:26:41;;;;;;;2.67;2.53;;;11.80;99.90;;;;;;4976797;28;20531;-63
2021/05/04 06:29:11;;;;;;;2.63;2.20;;;11.90;99.90;;;;;;4975787;28;20488;-63
2021/05/04 06:31:44;;;;;;;2.73;2.63;;;12.00;99.90;;;;;;4976171;28;20499;-63
2021/05/04 06:34:13;;;;;;;3.30;3.10;;;12.20;99.90;;;;;;4976292;28;20566;-63
2021/05/04 06:36:42;;;;;;;3.90;3.20;;;12.20;99.90;;;;;;4976302;28;21019;-63
2021/05/04 06:39:08;;;;;;;5.30;2.90;;;12.40;99.90;;;;;;4975780;28;20494;-63
2021/05/04 06:41:36;;;;;;;3.53;2.70;;;12.60;99.10;;;;;;4975782;28;20486;-63
2021/05/04 06:44:08;;;;;;;4.10;3.80;;;12.70;99.00;;;;;;4975890;28;20479;-63
2021/05/04 06:46:35;;;;;;;2.63;2.43;;;12.80;97.80;;;;;;4974986;28;20455;-64
2021/05/04 06:49:07;;;;;;;2.23;2.13;;;12.90;98.10;;;;;;4976227;28;20474;-64
2021/05/04 06:51:37;;;;;;;2.00;1.90;;;13.00;97.20;;;;;;4975905;28;20989;-63
2021/05/04 06:54:06;;;;;;;2.70;2.50;;;13.00;96.20;;;;;;4976754;28;20518;-63
2021/05/04 06:56:32;;;;;;;1.97;1.87;;;13.10;95.70;;;;;;4976250;28;20787;-63
2021/05/04 06:58:59;;;;;;;2.37;2.17;;;13.20;95.60;;;;;;4976620;28;20482;-63
2021/05/04 07:01:28;;;;;;;2.40;2.30;;;13.30;94.70;;;;;;4983200;28;20912;-64
2021/05/04 07:03:55;;;;;;;3.20;2.03;;;13.40;94.80;;;;;;4985555;28;20477;-64
2021/05/04 07:06:24;;;;;;;2.20;2.10;;;13.50;94.20;;;;;;4982473;28;20461;-64
2021/05/04 07:08:56;;;;;;;2.60;2.40;;;13.40;93.50;;;;;;4978853;28;20458;-64
2021/05/04 07:11:23;;;;;;;4.23;2.30;;;13.60;94.10;;;;;;4976807;28;20467;-63
2021/05/04 07:13:50;;;;;;;2.33;2.23;;;13.60;93.70;;;;;;4987480;28;20489;-63
2021/05/04 07:16:17;;;;;;;2.43;2.20;;;13.70;93.30;;;;;;4992342;28;20458;-63
2021/05/04 07:18:43;;;;;;;2.13;2.03;;;13.80;93.30;;;;;;4987844;28;20462;-63
2021/05/04 07:21:11;;;;;;;2.47;2.27;;;13.80;92.60;;;;;;4980439;28;20461;-64
2021/05/04 07:23:41;;;;;;;3.67;2.37;;;13.90;92.70;;;;;;4987770;28;20482;-63
2021/05/04 07:26:07;;;;;;;2.90;2.27;;;13.90;91.90;;;;;;4986963;28;20450;-63
2021/05/04 07:28:40;;;;;;;2.40;2.30;;;14.00;92.10;;;;;;4989547;28;20461;-64
2021/05/04 07:31:07;;;;;;;3.93;2.50;;;14.00;92.20;;;;;;4987999;28;20459;-64
2021/05/04 07:33:33;;;;;;;2.60;2.40;;;14.00;91.30;;;;;;4980159;28;20532;-63
2021/05/04 07:36:04;;;;;;;2.60;2.50;;;14.10;91.30;;;;;;4977490;28;20454;-63
2021/05/04 07:38:39;;;;;;;3.67;2.23;;;14.20;90.40;;;;;;4981148;28;20454;-63
2021/05/04 07:41:15;;;;;;;2.70;2.53;;;14.30;90.60;;;;;;4979917;28;20466;-63
2021/05/04 07:43:44;;;;;;;1.87;1.80;;;14.40;91.10;;;;;;4976442;28;20485;-63
2021/05/04 07:46:13;;;;;;;2.23;2.07;;;14.70;90.00;;;;;;4977251;28;20853;-62
2021/05/04 07:48:40;;;;;;;4.03;1.90;;;14.90;88.80;;;;;;4976679;28;20454;-61
2021/05/04 07:51:08;;;;;;;3.23;2.47;;;15.10;88.80;;;;;;4976908;28;20505;-63
2021/05/04 07:53:35;;;;;;;3.33;1.80;;;15.30;88.60;;;;;;4978987;28;20578;-62
2021/05/04 07:56:03;;;;;;;2.67;1.70;;;15.50;87.40;;;;;;4978873;28;20864;-62
2021/05/04 07:58:35;;;;;;;2.10;2.00;;;15.70;85.50;;;;;;4978984;28;20467;-62
2021/05/04 08:01:04;;;;;;;2.47;2.27;;;15.50;84.70;;;;;;4979407;28;20438;-62
2021/05/04 08:03:38;;;;;;;9.10;2.00;;;15.60;85.60;;;;;;4979382;28;20496;-62
2021/05/04 08:06:09;;;;;;;3.70;2.03;;;15.60;85.40;;;;;;4978680;28;20830;-62
2021/05/04 08:08:38;;;;;;;4.47;2.20;;;15.50;84.30;;;;;;4978941;28;20501;-61
2021/05/04 08:11:15;;;;;;;3.10;2.10;;;15.50;83.60;;;;;;4978836;28;20467;-62
2021/05/04 08:13:45;;;;;;;14.90;2.77;;;15.60;83.60;;;;;;4978675;28;20525;-63
2021/05/04 08:16:16;;;;;;;2.30;1.87;;;15.50;85.40;;;;;;4978898;28;20538;-62
2021/05/04 08:18:51;;;;;;;3.20;2.33;;;15.60;82.00;;;;;;4979930;28;20529;-62
2021/05/04 08:21:21;;;;;;;2.80;2.60;;;15.90;84.60;;;;;;4978644;28;20434;-62
2021/05/04 08:23:53;;;;;;;2.20;2.00;;;15.80;82.20;;;;;;4978965;28;20521;-62
2021/05/04 08:26:20;;;;;;;2.20;2.00;;;16.10;81.00;;;;;;4977997;28;20479;-62
2021/05/04 08:28:48;;;;;;;2.00;1.90;;;16.10;82.30;;;;;;4977954;28;20462;-62
2021/05/04 08:31:15;;;;;;;2.17;1.97;;;16.20;81.00;;;;;;4979820;28;20581;-62
2021/05/04 08:36:25;;;;;;;4.40;1.87;;;16.40;79.40;;;;;;4969526;28;20487;-64
2021/05/04 08:38:59;;;;;;;3.20;2.30;;;16.50;79.20;;;;;;4979141;28;20885;-63
2021/05/04 08:41:29;;;;;;;1.80;1.70;;;16.10;77.10;;;;;;4980017;28;20431;-63
2021/05/04 08:43:58;;;;;;;5.00;2.37;;;16.10;79.60;;;;;;4979729;28;20892;-63
2021/05/04 08:46:28;;;;;;;1.77;1.67;;;15.90;77.60;;;;;;4978686;28;20454;-63
2021/05/04 08:49:03;;;;;;;2.27;2.10;;;15.90;76.30;;;;;;4978787;28;20445;-62
2021/05/04 08:51:33;;;;;;;3.57;1.97;;;15.90;78.00;;;;;;4979318;28;20463;-61
2021/05/04 08:54:03;;;;;;;2.70;2.50;;;16.10;77.60;;;;;;4979396;28;20475;-62
2021/05/04 08:56:30;;;;;;;2.00;1.90;;;16.50;77.90;;;;;;4989859;28;20436;-62
2021/05/04 08:58:57;;;;;;;2.00;1.90;;;16.80;80.00;;;;;;4977922;28;20458;-62
2021/05/04 09:01:28;;;;;;;2.10;1.93;;;17.00;76.70;;;;;;4988332;28;20510;-63
2021/05/04 09:03:59;;;;;;;1.70;1.60;;;16.80;75.50;;;;;;4991713;28;20478;-63
2021/05/04 09:06:44;;;;;;;8.60;2.03;;;16.90;75.00;;;;;;4980627;28;20458;-62
2021/05/04 09:09:18;;;;;;;1.93;1.83;;;17.10;75.50;;;;;;4979736;28;20526;-63
2021/05/04 09:12:02;;;;;;;2.20;1.87;;;17.50;76.60;;;;;;4979559;28;20467;-62
2021/05/04 09:14:41;;;;;;;1.90;1.80;;;18.00;73.40;;;;;;4978862;28;20545;-63
2021/05/04 09:17:19;;;;;;;2.03;1.67;;;18.60;72.80;;;;;;4979649;28;20439;-63
2021/05/04 09:20:01;;;;;;;2.57;2.20;;;19.10;70.40;;;;;;4978726;28;20442;-63
2021/05/04 09:22:41;;;;;;;2.77;2.30;;;18.80;68.90;;;;;;4978867;28;20443;-63
2021/05/04 09:25:35;;;;;;;1.93;1.83;;;18.30;67.90;;;;;;4978284;28;20439;-64
2021/05/04 09:28:04;;;;;;;4.00;2.20;;;18.50;71.50;;;;;;4980391;28;20450;-64
2021/05/04 09:30:32;;;;;;;2.47;1.90;;;18.30;67.70;;;;;;4979641;28;20490;-64
2021/05/04 09:33:06;;;;;;;2.23;2.00;;;18.70;68.10;;;;;;4978364;28;20525;-64
2021/05/04 09:35:37;;;;;;;1.80;1.70;;;19.50;67.40;;;;;;4977619;28;20449;-64
2021/05/04 09:38:04;;;;;;;2.13;1.97;;;20.50;62.10;;;;;;4978356;28;20513;-64
2021/05/04 09:40:33;;;;;;;2.13;2.00;;;21.00;62.30;;;;;;4977095;28;20461;-64
2021/05/04 09:43:05;;;;;;;1.87;1.77;;;21.50;60.00;;;;;;4977898;28;20482;-65
2021/05/04 09:45:37;;;;;;;1.83;1.83;;;21.20;58.40;;;;;;4977342;28;20455;-64
2021/05/04 09:48:17;;;;;;;4.43;2.00;;;21.10;60.60;;;;;;4978117;28;20445;-64
2021/05/04 09:50:59;;;;;;;1.80;1.70;;;21.10;58.60;;;;;;4980329;28;20462;-65
2021/05/04 09:53:39;;;;;;;1.90;1.80;;;21.10;58.40;;;;;;4990913;28;20484;-65
2021/05/04 09:56:07;;;;;;;2.13;2.03;;;20.80;57.20;;;;;;4985346;28;20456;-65
2021/05/04 09:58:40;;;;;;;3.70;2.17;;;20.70;57.90;;;;;;4987156;28;20942;-64
2021/05/04 10:01:12;;;;;;;2.17;2.00;;;21.40;57.80;;;;;;4979358;28;20435;-65
2021/05/04 10:03:50;;;;;;;1.80;1.70;;;21.60;56.80;;;;;;4977580;28;20478;-64
2021/05/04 10:06:19;;;;;;;2.87;1.90;;;21.00;56.90;;;;;;4977427;28;20470;-64
2021/05/04 10:08:47;;;;;;;2.23;2.03;;;21.10;56.90;;;;;;4977380;28;20454;-63
2021/05/04 10:11:18;;;;;;;2.00;1.90;;;21.10;57.20;;;;;;4977531;28;20981;-63
2021/05/04 10:13:55;;;;;;;2.63;2.53;;;20.70;56.00;;;;;;4977026;28;21003;-64
2021/05/04 10:16:33;;;;;;;5.10;1.97;;;20.20;55.40;;;;;;4978451;28;20443;-64
2021/05/04 10:19:05;;;;;;;1.83;1.80;;;20.20;57.00;;;;;;4980850;28;20454;-64
2021/05/04 10:21:43;;;;;;;1.60;1.50;;;19.90;56.70;;;;;;4977769;28;20934;-64
2021/05/04 10:24:16;;;;;;;3.20;1.73;;;20.10;55.70;;;;;;4980569;28;20474;-62
2021/05/04 10:26:49;;;;;;;2.30;1.80;;;20.10;55.80;;;;;;4981562;28;20439;-61
2021/05/04 10:29:24;;;;;;;3.33;1.73;;;19.80;57.20;;;;;;4984171;28;20439;-63
2021/05/04 10:32:06;;;;;;;2.00;1.90;;;19.80;57.20;;;;;;4979156;28;20963;-62
2021/05/04 10:34:41;;;;;;;2.20;1.93;;;19.80;56.40;;;;;;4982098;28;20478;-62
2021/05/04 10:37:36;;;;;;;2.00;1.90;;;19.60;56.10;;;;;;4981704;28;20446;-62
2021/05/04 10:40:21;;;;;;;2.63;2.00;;;19.40;56.80;;;;;;4976892;28;20443;-62
2021/05/04 10:42:50;;;;;;;2.13;2.03;;;19.20;56.10;;;;;;4977496;28;21068;-61
2021/05/04 10:45:19;;;;;;;1.80;1.70;;;19.10;57.50;;;;;;4977105;28;20462;-62
2021/05/04 10:48:01;;;;;;;2.13;2.03;;;19.10;55.80;;;;;;4977866;28;20855;-62
2021/05/04 10:51:01;;;;;;;1.77;1.67;;;19.00;58.50;;;;;;4976535;28;20474;-62
2021/05/04 10:54:10;;;;;;;2.73;2.03;;;18.70;57.70;;;;;;4978071;28;20501;-61
2021/05/04 10:56:41;;;;;;;3.20;1.67;;;18.80;59.10;;;;;;4978282;28;20450;-63
2021/05/04 10:59:12;;;;;;;3.60;2.80;;;18.60;57.70;;;;;;4977961;28;20447;-62
2021/05/04 11:01:41;;;;;;;2.63;1.50;;;18.50;58.10;;;;;;4976623;28;20969;-62
2021/05/04 11:04:12;;;;;;;2.60;2.40;;;18.30;58.80;;;;;;4976885;28;20541;-63
2021/05/04 11:06:52;;;;;;;2.37;1.40;;;18.30;57.90;;;;;;4976054;28;20459;-63
2021/05/04 11:09:23;;;;;;;1.80;1.70;;;18.30;59.10;;;;;;4976458;28;20427;-61
2021/05/04 11:11:58;;;;;;;4.83;1.93;;;18.80;60.20;;;;;;4976624;28;20467;-63
2021/05/04 11:14:35;;;;;;;2.50;1.80;;;18.90;58.70;;;;;;4984192;28;20513;-62
2021/05/04 11:17:22;;;;;;;2.30;2.20;;;18.80;58.00;;;;;;4995442;28;20932;-63
2021/05/04 11:19:49;;;;;;;1.67;1.67;;;18.90;59.50;;;;;;4994510;28;20453;-64
2021/05/04 11:22:24;;;;;;;4.30;2.10;;;19.10;59.70;;;;;;4977976;28;20447;-64
2021/05/04 11:24:56;;;;;;;1.67;1.67;;;19.20;60.50;;;;;;4976673;28;20446;-62
2021/05/04 11:27:33;;;;;;;2.00;1.90;;;19.10;58.50;;;;;;4979215;28;20533;-63
2021/05/04 11:30:05;;;;;;;1.77;1.70;;;19.00;59.10;;;;;;4979626;28;20482;-63
2021/05/04 11:32:40;;;;;;;1.73;1.60;;;19.40;57.50;;;;;;4979547;28;20435;-62
2021/05/04 11:35:13;;;;;;;1.80;1.70;;;19.00;57.30;;;;;;4980772;28;20516;-65
2021/05/04 11:37:50;;;;;;;3.40;2.07;;;18.80;57.40;;;;;;4980127;28;20434;-63
2021/05/04 11:40:24;;;;;;;4.10;2.17;;;18.90;58.20;;;;;;4979912;28;20902;-63
2021/05/04 11:42:57;;;;;;;2.03;1.83;;;19.00;58.00;;;;;;4979420;28;20467;-63
2021/05/04 11:45:30;;;;;;;2.00;1.90;;;19.00;58.00;;;;;;4979306;28;20435;-63
2021/05/04 11:47:58;;;;;;;3.87;1.90;;;19.30;59.30;;;;;;4978533;28;20431;-63
2021/05/04 11:50:30;;;;;;;4.00;1.67;;;19.40;58.40;;;;;;4979076;28;20914;-63
2021/05/04 11:53:04;;;;;;;6.93;2.30;;;18.90;58.00;;;;;;4979184;28;20841;-63
2021/05/04 11:55:37;;;;;;;2.30;1.80;;;18.70;58.60;;;;;;4979825;28;20502;-63
2021/05/04 11:58:07;;;;;;;2.03;1.60;;;18.30;58.30;;;;;;4982411;28;20442;-63
2021/05/04 12:00:35;;;;;;;2.67;1.60;;;18.10;58.70;;;;;;4996820;28;20455;-64
2021/05/04 12:03:07;;;;;;;1.93;1.70;;;17.80;58.70;;;;;;4980467;28;20481;-63
2021/05/04 12:05:37;;;;;;;2.10;1.77;;;17.90;61.70;;;;;;4981057;28;20466;-63
2021/05/04 12:08:04;;;;;;;4.93;1.80;;;17.70;61.20;;;;;;4987150;28;20450;-64
2021/05/04 12:10:46;;;;;;;1.70;1.63;;;17.60;62.20;;;;;;4983292;28;20478;-63
2021/05/04 12:13:15;;;;;;;2.60;2.17;;;17.40;63.20;;;;;;4981598;28;20480;-63
2021/05/04 12:15:46;;;;;;;4.93;1.90;;;17.60;64.20;;;;;;4982414;28;20466;-63
2021/05/04 12:18:17;;;;;;;3.07;1.93;;;17.60;64.40;;;;;;4980561;28;20902;-64
2021/05/04 12:20:46;;;;;;;2.73;1.90;;;17.50;66.90;;;;;;4979990;28;20526;-64
2021/05/04 12:23:16;;;;;;;2.40;1.70;;;17.70;69.50;;;;;;4983571;28;20478;-64
2021/05/04 12:25:51;;;;;;;3.50;2.03;;;18.10;70.00;;;;;;4995485;28;20423;-64
2021/05/04 12:28:19;;;;;;;2.10;2.00;;;18.40;68.60;;;;;;4998607;28;20442;-65
2021/05/04 12:30:48;;;;;;;1.87;1.77;;;18.60;72.00;;;;;;4999037;28;20462;-63
2021/05/04 12:33:18;;;;;;;3.20;2.33;;;18.70;69.80;;;;;;4986691;28;20559;-63
2021/05/04 12:35:58;;;;;;;2.77;2.03;;;18.50;69.80;;;;;;4982394;28;20478;-63
2021/05/04 12:38:36;;;;;;;1.87;1.70;;;18.40;70.50;;;;;;4980875;28;20439;-62
2021/05/04 12:41:12;;;;;;;2.63;1.90;;;18.30;71.40;;;;;;4980462;28;20894;-63
2021/05/04 12:43:40;;;;;;;3.20;2.03;;;18.40;72.10;;;;;;4984461;28;20571;-64
2021/05/04 12:46:09;;;;;;;2.23;2.10;;;18.40;72.40;;;;;;4992890;28;20466;-64
2021/05/04 12:48:37;;;;;;;3.70;2.10;;;18.40;72.60;;;;;;4988730;28;20944;-64
2021/05/04 12:51:09;;;;;;;2.30;1.93;;;17.90;74.10;;;;;;4979780;28;20505;-64
2021/05/04 12:53:38;;;;;;;2.93;2.00;;;17.80;75.60;;;;;;4987065;28;20525;-64
2021/05/04 12:56:07;;;;;;;3.90;2.30;;;17.60;77.50;;;;;;4979213;28;20465;-64
2021/05/04 12:58:53;;;;;;;2.60;1.87;;;17.50;82.20;;;;;;4981708;28;20450;-63
2021/05/04 13:01:29;;;;;;;2.50;1.93;;;17.50;88.30;;;;;;4979278;28;20445;-63
2021/05/04 13:03:57;;;;;;;3.63;2.07;;;17.50;83.30;;;;;;4979111;28;21106;-64
2021/05/04 13:06:26;;;;;;;3.53;2.10;;;17.40;84.20;;;;;;4979330;28;20502;-65
2021/05/04 13:08:57;;;;;;;2.30;2.10;;;17.40;83.10;;;;;;4979086;28;20879;-64
2021/05/04 13:11:59;;;;;;;2.60;2.30;;;17.30;85.20;;;;;;4981101;28;20816;-61
2021/05/04 13:20:29;;;;;;;2.07;1.97;;;17.40;84.20;;;;;;4981019;28;20434;-63